Time;durP1;ratioP1;P1;durP2;ratioP2;P2;SDS_P1;SDS_P2;PMS_P1;PMS_P2;Temp;Humidity;BMP_temperature;BMP_pressure;BME280_temperature;BME280_humidity;BME280_pressure;Samples;Min_cycle;Max_cycle;Signal;HPM_P1;HPM_P2
2023/01/19 00:02:46;;;;;;;30.25;13.60;;;;;;;0.95;100.00;100275.72;5252851;28;20419;-74
2023/01/19 00:05:17;;;;;;;29.60;14.05;;;;;;;0.91;100.00;100261.94;5257922;28;20049;-74
2023/01/19 00:07:47;;;;;;;33.80;13.80;;;;;;;0.88;100.00;100263.97;5265545;28;20109;-74
2023/01/19 00:10:18;;;;;;;36.65;14.10;;;;;;;0.81;100.00;100262.78;5265372;28;20468;-75
2023/01/19 00:12:48;;;;;;;36.90;14.40;;;;;;;0.73;100.00;100263.34;5265639;28;20106;-74
2023/01/19 00:15:19;;;;;;;32.08;14.55;;;;;;;0.71;100.00;100267.91;5257091;28;20413;-74
2023/01/19 00:17:49;;;;;;;28.02;13.68;;;;;;;0.71;100.00;100268.75;5257622;28;20058;-75
2023/01/19 00:20:20;;;;;;;34.42;14.45;;;;;;;0.74;100.00;100265.88;5264808;28;20024;-74
2023/01/19 00:22:50;;;;;;;32.08;15.95;;;;;;;0.72;100.00;100269.59;5265177;28;20320;-74
2023/01/19 00:25:20;;;;;;;38.25;15.77;;;;;;;0.69;100.00;100264.53;5265399;28;20134;-74
2023/01/19 00:27:51;;;;;;;35.40;15.82;;;;;;;0.64;100.00;100270.16;5265103;28;20473;-74
2023/01/19 00:30:21;;;;;;;30.95;14.13;;;;;;;0.59;100.00;100274.94;5265415;28;20027;-74
2023/01/19 00:32:52;;;;;;;37.58;14.90;;;;;;;0.55;100.00;100270.03;5265048;28;20032;-74
2023/01/19 00:35:22;;;;;;;37.55;15.93;;;;;;;0.49;100.00;100273.97;5254942;28;20039;-73
2023/01/19 00:37:53;;;;;;;37.58;15.95;;;;;;;0.44;100.00;100282.22;5261635;28;20272;-74
2023/01/19 00:40:23;;;;;;;34.85;15.23;;;;;;;0.37;100.00;100274.91;5253689;28;20028;-74
2023/01/19 00:42:54;;;;;;;40.25;15.25;;;;;;;0.37;100.00;100281.03;5239437;28;20473;-75
2023/01/19 00:45:25;;;;;;;30.70;15.15;;;;;;;0.37;100.00;100275.75;5256881;28;20020;-74
2023/01/19 00:47:56;;;;;;;40.88;14.80;;;;;;;0.36;100.00;100279.34;5264944;28;20345;-74
2023/01/19 00:50:28;;;;;;;34.38;14.40;;;;;;;0.40;100.00;100277.28;5264840;28;20038;-74
2023/01/19 00:53:02;;;;;;;39.00;15.32;;;;;;;0.41;100.00;100277.19;5265129;28;20150;-74
2023/01/19 00:55:32;;;;;;;35.55;14.63;;;;;;;0.41;100.00;100279.84;5264741;28;20476;-74
2023/01/19 00:58:02;;;;;;;36.00;14.85;;;;;;;0.39;100.00;100273.81;5255991;28;20039;-74
2023/01/19 01:00:33;;;;;;;37.65;15.73;;;;;;;0.38;100.00;100277.41;5247524;28;20461;-74
2023/01/19 01:03:03;;;;;;;35.42;14.48;;;;;;;0.39;100.00;100280.91;5241452;28;20107;-75
2023/01/19 01:05:34;;;;;;;32.20;13.20;;;;;;;0.36;100.00;100286.41;5262393;28;20089;-75
2023/01/19 01:08:04;;;;;;;33.25;14.43;;;;;;;0.35;100.00;100282.06;5264421;28;20055;-75
2023/01/19 01:10:35;;;;;;;38.00;13.23;;;;;;;0.31;100.00;100284.13;5251043;28;20358;-75
2023/01/19 01:13:06;;;;;;;29.98;13.82;;;;;;;0.28;100.00;100281.69;5246791;28;20057;-74
2023/01/19 01:15:36;;;;;;;34.28;14.82;;;;;;;0.30;100.00;100286.84;5254406;28;20464;-74
2023/01/19 01:18:07;;;;;;;38.25;14.18;;;;;;;0.25;100.00;100298.63;5259267;28;20111;-75
2023/01/19 01:20:37;;;;;;;34.80;14.23;;;;;;;0.23;100.00;100300.50;5264346;28;20073;-74
2023/01/19 01:23:08;;;;;;;36.03;14.00;;;;;;;0.22;100.00;100293.56;5264608;28;20094;-74
2023/01/19 01:25:38;;;;;;;39.47;14.20;;;;;;;0.21;100.00;100301.59;5265041;28;20027;-74
2023/01/19 01:28:09;;;;;;;37.97;13.95;;;;;;;0.19;100.00;100306.97;5250807;28;20488;-75
2023/01/19 01:30:39;;;;;;;33.78;14.30;;;;;;;0.21;100.00;100312.97;5264572;28;20427;-75
2023/01/19 01:33:10;;;;;;;38.67;14.20;;;;;;;0.25;100.00;100309.16;5264314;28;20032;-75
2023/01/19 01:35:41;;;;;;;36.08;14.35;;;;;;;0.25;100.00;100297.75;5264873;28;20024;-75
2023/01/19 01:38:11;;;;;;;35.20;14.02;;;;;;;0.24;100.00;100293.44;5259832;28;20469;-74
2023/01/19 01:40:42;;;;;;;33.33;14.15;;;;;;;0.29;100.00;100301.00;5244546;28;20024;-74
2023/01/19 01:43:19;;;;;;;32.47;13.18;;;;;;;0.32;100.00;100298.16;5264838;28;20055;-75
2023/01/19 01:45:49;;;;;;;36.45;13.70;;;;;;;0.27;100.00;100297.66;5264529;28;20032;-75
2023/01/19 01:48:25;;;;;;;33.13;14.05;;;;;;;0.27;100.00;100292.38;5264758;28;20016;-75
2023/01/19 01:54:06;;;;;;;28.88;13.45;;;;;;;0.40;100.00;100293.13;5268281;28;20090;-74
2023/01/19 01:56:39;;;;;;;29.40;12.75;;;;;;;0.39;100.00;100297.56;5268313;28;20024;-74
2023/01/19 01:59:24;;;;;;;35.83;13.23;;;;;;;0.41;100.00;100297.47;5249739;28;20240;-72
2023/01/19 02:05:13;;;;;;;33.60;14.02;;;;;;;0.36;100.00;100289.91;5260031;28;19908;-74
2023/01/19 02:13:38;;;;;;;29.27;13.50;;;;;;;0.33;100.00;100305.09;5267734;28;20082;-75
2023/01/19 02:16:10;;;;;;;29.50;12.75;;;;;;;0.29;100.00;100312.41;5265218;28;20107;-74
2023/01/19 02:18:41;;;;;;;35.42;13.43;;;;;;;0.33;100.00;100313.03;5267142;28;20020;-74
2023/01/19 02:21:41;;;;;;;38.40;12.30;;;;;;;0.30;100.00;100313.25;5254239;28;20466;-75
2023/01/19 02:24:12;;;;;;;29.42;13.57;;;;;;;0.30;100.00;100324.63;5260320;28;20416;-74
2023/01/19 02:26:46;;;;;;;27.85;13.05;;;;;;;0.29;100.00;100322.13;5267713;28;20032;-74
2023/01/19 02:29:19;;;;;;;30.45;13.02;;;;;;;0.27;100.00;100327.50;5267373;28;20400;-72
2023/01/19 02:31:51;;;;;;;39.97;14.70;;;;;;;0.23;100.00;100332.16;5267427;28;20034;-72
2023/01/19 02:34:22;;;;;;;30.60;13.98;;;;;;;0.25;100.00;100340.84;5267333;28;20039;-74
2023/01/19 02:36:57;;;;;;;38.75;13.60;;;;;;;0.30;100.00;100331.72;5267428;28;20024;-73
2023/01/19 02:39:37;;;;;;;34.80;15.43;;;;;;;0.33;100.00;100339.41;5267193;28;20169;-73
2023/01/19 02:42:17;;;;;;;34.47;13.52;;;;;;;0.37;100.00;100333.78;5254876;28;20013;-74
2023/01/19 02:44:50;;;;;;;37.35;13.52;;;;;;;0.39;100.00;100345.06;5254213;28;20047;-75
2023/01/19 02:47:22;;;;;;;39.03;14.43;;;;;;;0.39;100.00;100344.22;5267018;28;20103;-74
2023/01/19 02:52:31;;;;;;;36.67;13.32;;;;;;;0.58;100.00;100349.81;5267163;22;20040;-75
2023/01/19 02:55:23;;;;;;;37.00;13.25;;;;;;;0.62;100.00;100353.94;5246515;28;20101;-75
2023/01/19 02:58:08;;;;;;;35.08;13.98;;;;;;;0.62;100.00;100358.38;5226281;28;20488;-75
2023/01/19 03:00:55;;;;;;;29.42;12.40;;;;;;;0.64;100.00;100354.66;5224303;28;20104;-75
2023/01/19 03:03:57;;;;;;;33.65;13.38;;;;;;;0.70;100.00;100355.97;5237713;28;20032;-75
2023/01/19 03:06:52;;;;;;;34.03;12.85;;;;;;;0.78;100.00;100374.75;5225347;28;20024;-75
2023/01/19 03:09:42;;;;;;;25.63;12.52;;;;;;;0.87;100.00;100389.06;5225753;28;20024;-75
2023/01/19 03:12:25;;;;;;;35.13;12.98;;;;;;;0.86;100.00;100390.88;5223956;28;20111;-75
2023/01/19 03:15:01;;;;;;;35.45;13.05;;;;;;;0.83;100.00;100387.59;5230392;28;20404;-76
2023/01/19 03:17:33;;;;;;;22.88;11.55;;;;;;;0.76;100.00;100382.78;5234858;28;20020;-76
2023/01/19 03:20:06;;;;;;;32.33;13.32;;;;;;;0.72;100.00;100383.97;5230265;28;20036;-76
2023/01/19 03:22:36;;;;;;;34.95;13.27;;;;;;;0.70;100.00;100395.59;5246138;28;20111;-76
2023/01/19 03:25:08;;;;;;;29.98;13.93;;;;;;;0.67;100.00;100383.47;5225535;28;20099;-76
2023/01/19 03:27:41;;;;;;;31.10;13.63;;;;;;;0.68;100.00;100385.16;5238421;28;20103;-76
2023/01/19 03:30:17;;;;;;;34.17;14.23;;;;;;;0.63;100.00;100389.94;5245679;28;20030;-76
2023/01/19 03:32:54;;;;;;;34.75;13.95;;;;;;;0.58;100.00;100386.78;5242552;28;20032;-76
2023/01/19 03:35:28;;;;;;;32.28;14.63;;;;;;;0.50;100.00;100373.31;5224978;28;20060;-76
2023/01/19 03:38:02;;;;;;;36.53;14.02;;;;;;;0.43;100.00;100372.91;5224296;28;20382;-76
2023/01/19 03:40:35;;;;;;;43.65;16.30;;;;;;;0.36;100.00;100373.50;5224782;28;20396;-76
2023/01/19 03:43:07;;;;;;;40.78;15.60;;;;;;;0.28;100.00;100367.94;5237956;28;20017;-76
2023/01/19 03:45:38;;;;;;;44.58;17.25;;;;;;;0.24;100.00;100372.56;5233758;28;20036;-76
2023/01/19 03:48:09;;;;;;;47.30;17.63;;;;;;;0.21;100.00;100383.38;5235783;28;20112;-76
2023/01/19 03:50:39;;;;;;;46.90;18.52;;;;;;;0.21;100.00;100378.09;5223018;28;20043;-76
2023/01/19 03:53:15;;;;;;;36.53;15.32;;;;;;;0.19;100.00;100383.47;5225730;28;20056;-76
2023/01/19 03:55:49;;;;;;;45.75;16.65;;;;;;;0.20;100.00;100379.91;5228436;28;20021;-76
2023/01/19 03:58:20;;;;;;;46.75;17.63;;;;;;;0.22;100.00;100383.25;5232785;28;20493;-76
2023/01/19 04:00:51;;;;;;;40.13;17.13;;;;;;;0.22;100.00;100380.63;5239492;28;20017;-76
2023/01/19 04:03:21;;;;;;;46.55;17.48;;;;;;;0.22;100.00;100388.53;5238762;28;20384;-76
2023/01/19 04:05:52;;;;;;;40.60;17.05;;;;;;;0.23;100.00;100395.47;5237075;28;20025;-76
2023/01/19 04:08:22;;;;;;;40.67;17.40;;;;;;;0.23;100.00;100392.00;5224316;28;20068;-76
2023/01/19 04:10:53;;;;;;;46.42;19.20;;;;;;;0.23;100.00;100392.00;5233601;28;20028;-76
2023/01/19 04:13:25;;;;;;;54.38;18.25;;;;;;;0.20;100.00;100394.84;5241891;28;20025;-76
2023/01/19 04:16:00;;;;;;;41.17;17.80;;;;;;;0.20;100.00;100387.81;5238988;28;20032;-76
2023/01/19 04:18:32;;;;;;;53.90;19.83;;;;;;;0.20;100.00;100394.84;5231518;28;20130;-76
2023/01/19 04:21:05;;;;;;;45.30;18.67;;;;;;;0.21;100.00;100389.50;5245190;28;20028;-76
2023/01/19 04:26:08;;;;;;;52.80;17.70;;;;;;;0.24;100.00;100386.59;5262249;28;20055;-74
2023/01/19 04:28:38;;;;;;;42.35;17.42;;;;;;;0.22;100.00;100385.88;5265495;28;20020;-74
2023/01/19 04:31:09;;;;;;;42.70;17.95;;;;;;;0.21;100.00;100381.56;5265357;28;20381;-73
2023/01/19 04:33:39;;;;;;;54.47;19.70;;;;;;;0.28;100.00;100378.47;5265565;28;20387;-73
2023/01/19 04:36:10;;;;;;;51.55;18.08;;;;;;;0.25;100.00;100382.16;5265991;28;20081;-73
2023/01/19 04:38:40;;;;;;;50.05;19.98;;;;;;;0.28;100.00;100397.78;5265251;28;20358;-74
2023/01/19 04:41:11;;;;;;;47.67;19.33;;;;;;;0.29;100.00;100390.72;5260583;28;20572;-74
2023/01/19 04:43:41;;;;;;;48.13;18.17;;;;;;;0.29;100.00;100398.63;5244599;28;20032;-73
2023/01/19 04:46:13;;;;;;;49.53;19.52;;;;;;;0.29;100.00;100396.84;5250757;28;20020;-74
2023/01/19 04:48:43;;;;;;;50.15;19.38;;;;;;;0.32;100.00;100390.50;5265052;28;20187;-73
2023/01/19 04:51:14;;;;;;;59.75;21.33;;;;;;;0.31;100.00;100394.09;5220687;28;20302;-73
2023/01/19 04:53:44;;;;;;;52.08;20.23;;;;;;;0.28;100.00;100384.59;5265139;28;20115;-73
2023/01/19 04:56:14;;;;;;;47.55;19.75;;;;;;;0.27;100.00;100396.13;5265371;28;20043;-73
2023/01/19 04:58:45;;;;;;;57.63;20.73;;;;;;;0.30;100.00;100390.59;5250116;28;20029;-73
2023/01/19 05:01:15;;;;;;;44.35;19.08;;;;;;;0.29;100.00;100391.56;5244013;28;20031;-73
2023/01/19 05:03:46;;;;;;;51.45;20.02;;;;;;;0.31;100.00;100386.19;5235298;28;20103;-73
2023/01/19 05:06:16;;;;;;;50.75;19.27;;;;;;;0.32;100.00;100395.78;5265179;28;20054;-73
2023/01/19 05:08:47;;;;;;;49.92;19.25;;;;;;;0.31;100.00;100397.59;5259118;28;20025;-73
2023/01/19 05:11:17;;;;;;;51.25;19.73;;;;;;;0.28;100.00;100402.22;5257275;28;20043;-73
2023/01/19 05:13:48;;;;;;;47.90;19.52;;;;;;;0.26;100.00;100402.34;5264790;28;20504;-73
2023/01/19 05:16:19;;;;;;;57.47;21.05;;;;;;;0.27;100.00;100405.81;5244901;28;20020;-73
2023/01/19 05:18:49;;;;;;;49.63;21.55;;;;;;;0.24;100.00;100409.50;5265000;28;20362;-73
2023/01/19 05:21:20;;;;;;;48.58;19.73;;;;;;;0.23;100.00;100408.69;5263215;28;20020;-73
2023/01/19 05:23:50;;;;;;;49.30;18.88;;;;;;;0.25;100.00;100411.19;5245574;28;20074;-72
2023/01/19 05:26:21;;;;;;;46.25;18.02;;;;;;;0.23;100.00;100411.31;5264279;28;20078;-73
2023/01/19 05:28:51;;;;;;;47.70;18.67;;;;;;;0.25;100.00;100419.09;5269386;28;20102;-72
2023/01/19 05:31:22;;;;;;;48.83;18.25;;;;;;;0.21;100.00;100420.31;5255909;28;20453;-73
2023/01/19 05:33:52;;;;;;;57.13;19.35;;;;;;;0.20;100.00;100415.97;5269153;28;20111;-73
2023/01/19 05:36:23;;;;;;;56.67;19.27;;;;;;;0.18;100.00;100421.34;5268416;28;20035;-73
2023/01/19 05:38:53;;;;;;;49.88;19.10;;;;;;;0.18;100.00;100423.16;5268993;28;20028;-73
2023/01/19 05:41:24;;;;;;;54.20;18.80;;;;;;;0.14;100.00;100430.44;5268557;28;20480;-73
2023/01/19 05:43:54;;;;;;;55.55;19.58;;;;;;;0.14;100.00;100430.44;5268849;28;20024;-73
2023/01/19 05:46:25;;;;;;;57.25;21.33;;;;;;;0.12;100.00;100429.72;5268503;28;20511;-74
2023/01/19 05:48:56;;;;;;;48.28;17.75;;;;;;;0.13;100.00;100430.56;5254839;28;20149;-73
2023/01/19 05:51:33;;;;;;;47.95;18.27;;;;;;;0.09;100.00;100434.34;5250065;28;20118;-73
2023/01/19 05:54:05;;;;;;;54.03;19.35;;;;;;;0.06;100.00;100430.16;5263745;28;20031;-73
2023/01/19 05:56:36;;;;;;;55.28;20.27;;;;;;;0.06;100.00;100426.69;5259459;28;20439;-73
2023/01/19 05:59:06;;;;;;;51.50;20.55;;;;;;;0.07;100.00;100426.56;5248623;28;20020;-73
2023/01/19 06:01:37;;;;;;;57.15;20.85;;;;;;;0.06;100.00;100422.25;5260230;28;20062;-73
2023/01/19 06:04:07;;;;;;;61.17;22.42;;;;;;;0.02;100.00;100425.22;5253932;28;20020;-73
2023/01/19 06:06:38;;;;;;;56.17;21.85;;;;;;;0.01;100.00;100431.44;5266816;28;20042;-73
2023/01/19 06:09:08;;;;;;;65.55;23.17;;;;;;;-0.05;100.00;100428.28;5255286;28;20024;-73
2023/01/19 06:11:39;;;;;;;61.60;22.98;;;;;;;-0.06;100.00;100437.13;5268272;28;20096;-72
2023/01/19 06:14:10;;;;;;;69.45;22.77;;;;;;;-0.09;100.00;100439.16;5250336;28;20120;-72
2023/01/19 06:16:41;;;;;;;59.50;22.58;;;;;;;-0.10;100.00;100435.69;5261588;28;20044;-73
2023/01/19 06:19:11;;;;;;;64.70;23.52;;;;;;;-0.14;100.00;100443.91;5257637;28;20561;-73
2023/01/19 06:21:48;;;;;;;61.13;23.98;;;;;;;-0.19;100.00;100441.59;5267527;28;20393;-72
2023/01/19 06:24:18;;;;;;;68.10;24.05;;;;;;;-0.21;100.00;100445.28;5267373;28;20024;-73
2023/01/19 06:26:49;;;;;;;75.30;25.50;;;;;;;-0.24;100.00;100451.63;5266999;28;20035;-73
2023/01/19 06:29:20;;;;;;;87.90;30.45;;;;;;;-0.28;100.00;100447.50;5267516;28;20435;-73
2023/01/19 06:31:51;;;;;;;73.75;26.50;;;;;;;-0.32;100.00;100449.50;5267331;28;20028;-73
2023/01/19 06:34:25;;;;;;;73.45;25.98;;;;;;;-0.37;100.00;100450.78;5253514;28;20394;-73
2023/01/19 06:36:56;;;;;;;90.63;30.50;;;;;;;-0.39;100.00;100464.06;5267314;28;20039;-73
2023/01/19 06:39:27;;;;;;;70.55;25.92;;;;;;;-0.41;100.00;100463.31;5266835;28;20028;-73
2023/01/19 06:41:57;;;;;;;80.63;27.05;;;;;;;-0.43;100.00;100459.09;5267165;28;20019;-73
2023/01/19 06:44:28;;;;;;;81.70;26.00;;;;;;;-0.43;100.00;100467.00;5267047;28;20027;-73
2023/01/19 06:46:58;;;;;;;83.97;27.73;;;;;;;-0.47;100.00;100458.47;5248982;28;20554;-73
2023/01/19 06:49:29;;;;;;;83.20;26.55;;;;;;;-0.52;100.00;100461.41;5266593;28;20031;-73
2023/01/19 06:51:59;;;;;;;88.95;25.70;;;;;;;-0.53;100.00;100472.91;5266968;28;20008;-73
2023/01/19 06:54:30;;;;;;;78.18;27.20;;;;;;;-0.50;100.00;100471.00;5266893;28;20457;-73
2023/01/19 06:57:00;;;;;;;88.22;27.45;;;;;;;-0.51;100.00;100475.44;5253328;28;20102;-73
2023/01/19 06:59:31;;;;;;;77.55;25.42;;;;;;;-0.51;100.00;100480.69;5245871;28;20025;-73
2023/01/19 07:02:01;;;;;;;81.90;26.30;;;;;;;-0.50;100.00;100479.78;5258433;28;20473;-73
2023/01/19 07:04:32;;;;;;;81.35;25.40;;;;;;;-0.54;100.00;100486.19;5238245;28;20102;-73
2023/01/19 07:07:03;;;;;;;89.97;29.52;;;;;;;-0.60;100.00;100487.47;5266286;28;20047;-73
2023/01/19 07:09:33;;;;;;;94.78;31.65;;;;;;;-0.58;100.00;100492.63;5254553;28;20020;-73
2023/01/19 07:12:05;;;;;;;79.88;26.85;;;;;;;-0.54;100.00;100491.47;5265286;28;20168;-72
2023/01/19 07:14:35;;;;;;;86.80;27.40;;;;;;;-0.56;100.00;100493.34;5264147;28;20130;-73
2023/01/19 07:17:06;;;;;;;89.68;26.67;;;;;;;-0.58;100.00;100497.88;5253040;28;20095;-73
2023/01/19 07:19:36;;;;;;;78.72;26.00;;;;;;;-0.58;100.00;100505.78;5266169;28;20119;-73
2023/01/19 07:22:07;;;;;;;74.45;24.85;;;;;;;-0.58;100.00;100509.25;5266512;28;20028;-73
2023/01/19 07:24:37;;;;;;;74.82;26.08;;;;;;;-0.59;100.00;100512.00;5263537;28;20038;-73
2023/01/19 07:27:10;;;;;;;81.10;24.73;;;;;;;-0.57;100.00;100515.38;5255202;28;20024;-73
2023/01/19 07:29:41;;;;;;;88.05;25.17;;;;;;;-0.59;100.00;100520.75;5265889;28;20035;-73
2023/01/19 07:32:11;;;;;;;86.30;29.90;;;;;;;-0.59;100.00;100526.03;5266375;28;20469;-73
2023/01/19 07:34:42;;;;;;;77.20;25.73;;;;;;;-0.58;100.00;100534.78;5266141;28;20063;-73
2023/01/19 07:37:12;;;;;;;98.03;29.52;;;;;;;-0.61;100.00;100534.97;5266386;28;20045;-73
2023/01/19 07:39:43;;;;;;;84.28;26.77;;;;;;;-0.63;100.00;100529.81;5252005;28;20115;-73
2023/01/19 07:42:13;;;;;;;86.95;26.38;;;;;;;-0.64;100.00;100535.19;5252380;28;20016;-73
2023/01/19 07:44:44;;;;;;;93.95;26.80;;;;;;;-0.62;100.00;100535.91;5266012;28;20166;-73
2023/01/19 07:47:14;;;;;;;84.95;26.40;;;;;;;-0.59;100.00;100547.09;5265292;28;20069;-73
2023/01/19 07:49:45;;;;;;;86.05;26.85;;;;;;;-0.58;100.00;100553.22;5265431;28;20477;-73
2023/01/19 07:52:15;;;;;;;94.00;28.92;;;;;;;-0.58;100.00;100551.44;5265370;28;20028;-73
2023/01/19 07:54:49;;;;;;;90.80;28.30;;;;;;;-0.61;100.00;100546.34;5265645;28;20114;-73
2023/01/19 07:57:20;;;;;;;81.43;25.23;;;;;;;-0.61;100.00;100556.88;5262624;28;20033;-74
2023/01/19 07:59:51;;;;;;;85.28;26.45;;;;;;;-0.56;100.00;100553.94;5245128;28;20020;-73
2023/01/19 08:02:21;;;;;;;93.07;27.67;;;;;;;-0.55;100.00;100555.66;5252465;28;20363;-73
2023/01/19 08:04:52;;;;;;;95.78;28.02;;;;;;;-0.56;100.00;100556.59;5250112;28;20428;-73
2023/01/19 08:07:22;;;;;;;94.30;29.83;;;;;;;-0.53;100.00;100553.75;5258048;28;20166;-73
2023/01/19 08:09:53;;;;;;;83.55;27.05;;;;;;;-0.49;100.00;100562.31;5258708;28;20450;-73
2023/01/19 08:12:24;;;;;;;75.97;27.15;;;;;;;-0.43;100.00;100569.81;5265499;28;20552;-73
2023/01/19 08:14:54;;;;;;;81.57;26.33;;;;;;;-0.40;100.00;100567.81;5262266;28;20033;-73
2023/01/19 08:17:25;;;;;;;78.53;25.70;;;;;;;-0.36;100.00;100571.06;5265101;28;20024;-73
2023/01/19 08:19:56;;;;;;;89.90;29.27;;;;;;;-0.29;100.00;100580.28;5261832;28;20473;-73
2023/01/19 08:22:26;;;;;;;83.25;27.65;;;;;;;-0.15;100.00;100574.03;5255037;28;20024;-73
2023/01/19 08:24:57;;;;;;;76.68;25.10;;;;;;;-0.06;100.00;100583.97;5265026;28;20450;-73
2023/01/19 08:27:27;;;;;;;77.30;27.27;;;;;;;0.08;100.00;100581.22;5264959;28;20028;-73
2023/01/19 08:29:58;;;;;;;72.85;25.88;;;;;;;0.33;100.00;100590.09;5228073;28;20073;-73
2023/01/19 08:32:28;;;;;;;83.43;33.53;;;;;;;0.58;100.00;100595.34;5257005;28;20092;-73
2023/01/19 08:34:59;;;;;;;71.15;24.27;;;;;;;0.78;100.00;100594.75;5265285;28;20440;-73
2023/01/19 08:37:29;;;;;;;55.67;20.85;;;;;;;0.88;100.00;100607.31;5251550;28;20198;-73
2023/01/19 08:40:00;;;;;;;52.40;20.10;;;;;;;0.85;100.00;100607.50;5264835;28;20020;-73
2023/01/19 08:42:30;;;;;;;67.32;23.77;;;;;;;1.11;100.00;100611.78;5263084;28;20095;-73
2023/01/19 08:45:01;;;;;;;53.55;21.77;;;;;;;1.21;100.00;100612.81;5253827;28;20019;-74
2023/01/19 08:47:34;;;;;;;53.00;21.00;;;;;;;1.38;100.00;100610.72;5261559;28;20028;-73
2023/01/19 08:50:05;;;;;;;51.22;20.48;;;;;;;1.59;100.00;100616.22;5255107;28;20455;-74
2023/01/19 08:52:36;;;;;;;48.53;18.55;;;;;;;1.59;100.00;100619.69;5264486;28;20016;-73
2023/01/19 08:55:07;;;;;;;49.45;18.67;;;;;;;1.55;100.00;100624.34;5264990;28;20107;-74
2023/01/19 08:57:37;;;;;;;46.92;18.70;;;;;;;1.34;100.00;100620.66;5259321;28;20031;-74
2023/01/19 09:00:09;;;;;;;39.85;17.95;;;;;;;1.25;100.00;100619.53;5247524;28;20025;-74
2023/01/19 09:02:40;;;;;;;41.45;16.35;;;;;;;1.22;100.00;100627.69;5234160;28;20063;-74
2023/01/19 09:05:10;;;;;;;53.50;17.88;;;;;;;1.14;100.00;100630.03;5258658;28;20103;-74
2023/01/19 09:07:43;;;;;;;46.08;17.52;;;;;;;1.09;100.00;100631.34;5268972;28;20028;-73
2023/01/19 09:10:14;;;;;;;38.17;16.77;;;;;;;1.23;100.00;100626.72;5250614;28;20063;-74
2023/01/19 09:12:45;;;;;;;46.58;18.38;;;;;;;1.18;100.00;100630.69;5269198;28;20077;-74
2023/01/19 09:15:16;;;;;;;55.20;18.10;;;;;;;1.41;100.00;100637.78;5261271;28;20481;-74
2023/01/19 09:17:46;;;;;;;48.70;16.75;;;;;;;1.77;100.00;100631.56;5259965;28;20028;-74
2023/01/19 09:20:17;;;;;;;48.92;17.38;;;;;;;1.99;100.00;100637.88;5268508;28;20123;-74
2023/01/19 09:22:47;;;;;;;44.45;16.90;;;;;;;1.99;100.00;100633.41;5269059;28;20070;-74
2023/01/19 09:25:18;;;;;;;40.45;16.90;;;;;;;1.80;100.00;100638.41;5234479;28;20694;-74
2023/01/19 09:27:49;;;;;;;40.42;16.42;;;;;;;1.68;100.00;100639.31;5249075;28;20082;-74
2023/01/19 09:30:19;;;;;;;41.50;15.82;;;;;;;1.64;100.00;100643.16;5317359;22;20027;-76
2023/01/19 09:32:49;;;;;;;41.63;16.42;;;;;;;1.50;100.00;100646.81;5282513;28;20036;-76
2023/01/19 09:35:20;;;;;;;37.67;16.02;;;;;;;1.41;100.00;100642.22;5256928;28;20043;-76
2023/01/19 09:37:50;;;;;;;56.40;17.42;;;;;;;1.32;100.00;100648.19;5261036;28;20031;-75
2023/01/19 09:40:21;;;;;;;56.90;18.58;;;;;;;1.28;100.00;100643.09;5247521;28;20112;-75
2023/01/19 09:43:13;;;;;;;44.83;17.05;;;;;;;1.31;100.00;100646.50;5247359;28;20017;-75
2023/01/19 09:45:52;;;;;;;48.33;19.08;;;;;;;1.46;100.00;100650.66;5247549;28;20397;-75
2023/01/19 09:48:26;;;;;;;55.63;21.45;;;;;;;1.66;100.00;100652.69;5247128;28;20042;-75
2023/01/19 09:51:00;;;;;;;54.53;17.92;;;;;;;1.68;100.00;100656.03;5246839;28;20379;-75
2023/01/19 09:53:41;;;;;;;51.45;17.13;;;;;;;1.74;100.00;100666.16;5260735;28;20126;-75
2023/01/19 09:56:14;;;;;;;59.03;23.42;;;;;;;1.87;100.00;100666.09;5260182;28;20029;-76
2023/01/19 09:58:45;;;;;;;77.63;35.13;;;;;;;1.99;100.00;100672.25;5252475;28;20027;-75
2023/01/19 10:01:32;;;;;;;58.17;23.63;;;;;;;2.14;100.00;100668.44;5255751;28;20031;-76
2023/01/19 10:04:26;;;;;;;50.83;20.27;;;;;;;2.24;100.00;100673.91;5267142;28;20111;-76
2023/01/19 10:07:10;;;;;;;54.45;19.33;;;;;;;2.21;100.00;100667.03;5250317;28;20481;-76
2023/01/19 10:09:59;;;;;;;44.60;17.20;;;;;;;2.04;100.00;100672.75;5257821;28;20073;-76
2023/01/19 10:12:42;;;;;;;47.72;17.52;;;;;;;2.04;100.00;100675.41;5247033;28;20032;-76
2023/01/19 10:15:22;;;;;;;47.50;17.60;;;;;;;1.91;100.00;100678.16;5254139;28;20484;-76
2023/01/19 10:18:33;;;;;;;47.30;18.02;;;;;;;1.84;100.00;100671.59;5254895;28;20036;-75
2023/01/19 10:21:21;;;;;;;57.40;21.48;;;;;;;1.66;100.00;100676.47;5246793;28;20392;-75
2023/01/19 10:24:00;;;;;;;61.63;21.80;;;;;;;1.81;100.00;100680.63;5247056;28;20086;-76
2023/01/19 10:26:35;;;;;;;57.70;20.58;;;;;;;1.82;100.00;100684.13;5245091;28;20021;-76
2023/01/19 10:29:24;;;;;;;64.10;21.00;;;;;;;1.73;100.00;100680.34;5245795;28;20063;-75
2023/01/19 10:32:26;;;;;;;61.05;21.80;;;;;;;1.75;100.00;100677.56;5246262;28;20036;-76
2023/01/19 10:34:58;;;;;;;60.72;21.65;;;;;;;1.75;100.00;100677.56;5246802;28;20488;-76
2023/01/19 10:37:39;;;;;;;68.18;22.95;;;;;;;1.74;100.00;100678.53;5259984;28;20532;-76
2023/01/19 10:40:09;;;;;;;57.55;22.55;;;;;;;1.86;100.00;100684.72;5246497;28;20484;-76
2023/01/19 10:42:41;;;;;;;65.68;21.77;;;;;;;1.96;100.00;100673.34;5246285;28;20032;-77
2023/01/19 10:45:19;;;;;;;67.45;23.20;;;;;;;2.03;100.00;100674.56;5244833;28;20021;-76
2023/01/19 10:47:51;;;;;;;57.60;21.73;;;;;;;1.94;100.00;100671.75;5245999;28;20035;-76
2023/01/19 10:50:30;;;;;;;74.25;22.58;;;;;;;1.96;100.00;100676.00;5245952;28;20017;-76
2023/01/19 10:53:04;;;;;;;61.47;22.00;;;;;;;1.98;100.00;100675.88;5253657;28;20107;-76
2023/01/19 10:55:36;;;;;;;63.00;23.02;;;;;;;1.91;100.00;100671.97;5250577;28;20025;-76
2023/01/19 10:58:27;;;;;;;59.55;21.70;;;;;;;1.95;100.00;100681.38;5254196;28;20106;-76
2023/01/19 11:01:22;;;;;;;61.30;23.00;;;;;;;1.96;100.00;100683.09;5252294;28;20081;-76
2023/01/19 11:03:55;;;;;;;78.43;25.27;;;;;;;2.03;100.00;100671.06;5247951;28;20087;-75
2023/01/19 11:06:29;;;;;;;180.40;54.75;;;;;;;2.13;100.00;100677.34;5244516;28;20025;-76
2023/01/19 11:09:17;;;;;;;62.03;23.42;;;;;;;2.06;100.00;100679.63;5244708;28;20024;-76
2023/01/19 11:11:51;;;;;;;59.22;22.05;;;;;;;2.02;100.00;100677.34;5245776;28;20016;-76
2023/01/19 11:14:23;;;;;;;65.00;21.23;;;;;;;1.95;100.00;100681.38;5245532;28;20093;-76
2023/01/19 11:16:56;;;;;;;64.10;22.13;;;;;;;1.96;100.00;100675.16;5265315;28;20480;-76
2023/01/19 11:19:30;;;;;;;58.55;21.63;;;;;;;1.91;100.00;100672.84;5253657;28;20025;-76
2023/01/19 11:22:33;;;;;;;60.88;19.65;;;;;;;1.91;100.00;100675.50;5244740;28;20035;-76
2023/01/19 11:25:04;;;;;;;67.22;21.17;;;;;;;2.02;100.00;100677.34;5242473;28;20706;-76
2023/01/19 11:27:36;;;;;;;56.95;18.73;;;;;;;2.06;100.00;100677.00;5245198;28;20031;-76
2023/01/19 11:30:18;;;;;;;67.13;19.48;;;;;;;2.02;100.00;100674.69;5245399;28;20025;-76
2023/01/19 11:32:48;;;;;;;60.55;19.48;;;;;;;2.05;100.00;100672.63;5258856;28;20035;-76
2023/01/19 11:35:39;;;;;;;62.97;21.15;;;;;;;2.18;100.00;100680.50;5245266;28;20021;-76
2023/01/19 11:38:19;;;;;;;60.22;17.92;;;;;;;2.14;100.00;100680.84;5244781;28;20074;-76
2023/01/19 11:40:55;;;;;;;61.90;17.15;;;;;;;2.23;100.00;100685.44;5258947;28;20020;-76
2023/01/19 11:43:29;;;;;;;57.78;18.85;;;;;;;2.26;100.00;100682.53;5245345;28;20672;-76
2023/01/19 11:46:00;;;;;;;128.15;50.17;;;;;;;2.27;100.00;100679.81;5244124;28;20028;-76
2023/01/19 11:48:34;;;;;;;48.33;17.48;;;;;;;1.98;100.00;100683.81;5255527;28;20024;-75
2023/01/19 11:51:12;;;;;;;62.17;18.25;;;;;;;2.01;100.00;100688.88;5246007;28;20048;-76
2023/01/19 11:53:48;;;;;;;45.88;15.48;;;;;;;2.02;100.00;100693.22;5244683;28;20059;-76